TGW583 RPMD-WSSS
Flight info
| Callsign | TGW583 |
|---|---|
| Flight time | N/A |
| Altitude | 34000 |
| Route | DEWIN1C DEWIN W10 ZAM A341 VSN W461 ANKOB/N0471F360 W461 BRU M646 TOMAN KARTO2B |
| Aircraft | E290/M-SDFRGIWHY/S |
Departure
| Time | 2026-05-08 09:13 |
|---|---|
| Airport | Francisco Bangoy International Airport (RPMD) |
Arrival
| Time | N/A |
|---|---|
| Airport | Singapore Changi Airport (WSSS) |
| Time | Latitude | Longitude | Altitude | Speed | Heading |
|---|---|---|---|---|---|
| 2026-05-08 08:55 | 7.13036 | 125.64647 | 100 ft | 0 kts | 320° |
| 2026-05-08 09:04 | 7.13032 | 125.64650 | 100 ft | 3 kts | 320° |
| 2026-05-08 09:04 | 7.13012 | 125.64668 | 100 ft | 4 kts | 315° |
| 2026-05-08 09:04 | 7.12993 | 125.64688 | 100 ft | 4 kts | 307° |
| 2026-05-08 09:04 | 7.12980 | 125.64710 | 99 ft | 4 kts | 279° |
| 2026-05-08 09:05 | 7.12981 | 125.64728 | 98 ft | 0 kts | 229° |
| 2026-05-08 09:08 | 7.12980 | 125.64727 | 44 ft | 2 kts | 229° |
| 2026-05-08 09:09 | 7.12939 | 125.64679 | 100 ft | 16 kts | 229° |
| 2026-05-08 09:09 | 7.12843 | 125.64568 | 100 ft | 23 kts | 229° |
| 2026-05-08 09:09 | 7.12749 | 125.64460 | 100 ft | 10 kts | 226° |
| 2026-05-08 09:09 | 7.12679 | 125.64462 | 99 ft | 14 kts | 144° |
| 2026-05-08 09:10 | 7.12598 | 125.64529 | 99 ft | 15 kts | 140° |
| 2026-05-08 09:10 | 7.12542 | 125.64554 | 99 ft | 5 kts | 192° |
| 2026-05-08 09:10 | 7.12533 | 125.64549 | 99 ft | 0 kts | 210° |
| 2026-05-08 09:10 | 7.12497 | 125.64511 | 98 ft | 17 kts | 231° |
| 2026-05-08 09:11 | 7.12380 | 125.64375 | 99 ft | 34 kts | 229° |
| 2026-05-08 09:11 | 7.12217 | 125.64185 | 100 ft | 35 kts | 230° |
| 2026-05-08 09:11 | 7.12059 | 125.64003 | 101 ft | 33 kts | 230° |
| 2026-05-08 09:11 | 7.11911 | 125.63831 | 101 ft | 32 kts | 229° |
| 2026-05-08 09:12 | 7.11771 | 125.63668 | 100 ft | 18 kts | 230° |
| 2026-05-08 09:12 | 7.11746 | 125.63553 | 99 ft | 15 kts | 244° |
| 2026-05-08 09:12 | 7.11692 | 125.63558 | 99 ft | 9 kts | 99° |
| 2026-05-08 09:12 | 7.11720 | 125.63608 | 98 ft | 11 kts | 51° |
| 2026-05-08 09:13 | 7.11894 | 125.63811 | 101 ft | 70 kts | 49° |
| 2026-05-08 09:13 | 7.12355 | 125.64344 | 99 ft | 130 kts | 49° |
| 2026-05-08 09:13 | 7.13061 | 125.65161 | 202 ft | 173 kts | 47° |
| 2026-05-08 09:13 | 7.13907 | 125.66112 | 817 ft | 189 kts | 48° |
| 2026-05-08 09:14 | 7.14828 | 125.67145 | 993 ft | 212 kts | 49° |
| 2026-05-08 09:14 | 7.15825 | 125.68311 | 1594 ft | 222 kts | 50° |
| 2026-05-08 09:14 | 7.16958 | 125.69355 | 2400 ft | 222 kts | 25° |
| 2026-05-08 09:14 | 7.18471 | 125.69486 | 3146 ft | 228 kts | 345° |
| 2026-05-08 09:15 | 7.19855 | 125.68530 | 3413 ft | 264 kts | 305° |